Time;durP1;ratioP1;P1;durP2;ratioP2;P2;SDS_P1;SDS_P2;PMS_P1;PMS_P2;Temp;Humidity;BMP_temperature;BMP_pressure;BME280_temperature;BME280_humidity;BME280_pressure;Samples;Min_cycle;Max_cycle;Signal;HPM_P1;HPM_P2
2023/06/14 00:03:22;;;;;;;10.27;7.18;;;22.50;53.60;;;;;;8409444;28;20097;-54
2023/06/14 00:07:34;;;;;;;11.13;7.95;;;22.50;53.60;;;;;;8426739;28;20509;-54
2023/06/14 00:11:35;;;;;;;12.48;7.50;;;22.50;53.70;;;;;;8427511;28;20510;-54
2023/06/14 00:15:36;;;;;;;11.85;7.85;;;22.50;53.80;;;;;;8426837;28;20075;-54
2023/06/14 00:19:36;;;;;;;12.13;7.97;;;22.50;53.80;;;;;;8426955;28;20473;-55
2023/06/14 00:23:37;;;;;;;10.30;7.60;;;22.50;53.90;;;;;;8408603;28;20040;-54
2023/06/14 00:27:38;;;;;;;10.38;7.32;;;22.50;53.90;;;;;;8408756;28;20469;-54
2023/06/14 00:31:39;;;;;;;10.98;7.85;;;22.40;53.90;;;;;;8426467;28;20478;-54
2023/06/14 00:35:40;;;;;;;13.05;7.80;;;22.40;53.90;;;;;;8426701;28;20089;-54
2023/06/14 00:39:40;;;;;;;13.18;8.40;;;22.40;53.80;;;;;;8426437;28;20016;-54
2023/06/14 00:43:41;;;;;;;12.70;8.10;;;22.40;53.90;;;;;;8426252;28;20501;-54
2023/06/14 00:47:43;;;;;;;12.63;8.20;;;22.40;53.90;;;;;;8426242;28;20020;-54
2023/06/14 00:51:45;;;;;;;15.00;7.40;;;22.40;53.90;;;;;;8426193;28;20024;-54
2023/06/14 00:55:47;;;;;;;9.88;7.03;;;22.40;54.00;;;;;;8426043;28;20047;-53
2023/06/14 00:59:48;;;;;;;9.35;7.25;;;22.40;54.00;;;;;;8408340;28;20028;-54
2023/06/14 01:03:51;;;;;;;8.48;7.03;;;22.40;54.00;;;;;;8426022;28;20032;-54
2023/06/14 01:08:11;;;;;;;11.00;6.88;;;22.40;54.00;;;;;;8425953;28;20406;-54
2023/06/14 01:12:19;;;;;;;10.93;7.25;;;22.40;54.10;;;;;;8425984;28;20031;-54
2023/06/14 01:16:20;;;;;;;10.50;7.70;;;22.40;54.10;;;;;;8407752;28;20119;-54
2023/06/14 01:20:21;;;;;;;;;;;22.40;54.10;;;;;;8430140;28;20473;-54
2023/06/14 01:24:25;;;;;;;10.35;7.53;;;22.30;54.10;;;;;;8432293;28;19996;-54
2023/06/14 01:28:31;;;;;;;9.95;6.82;;;22.30;54.10;;;;;;8432110;28;20492;-54
2023/06/14 01:32:32;;;;;;;9.80;6.75;;;22.30;54.10;;;;;;8432352;28;20020;-54
2023/06/14 01:36:35;;;;;;;9.15;6.43;;;22.30;54.10;;;;;;8431815;28;20024;-54
2023/06/14 01:40:37;;;;;;;9.10;6.55;;;22.30;54.10;;;;;;8432201;28;20028;-54
2023/06/14 01:44:37;;;;;;;10.15;6.32;;;22.30;54.10;;;;;;8431798;28;20212;-54
2023/06/14 01:48:38;;;;;;;11.30;6.80;;;22.30;54.10;;;;;;8431613;28;20503;-54
2023/06/14 01:52:39;;;;;;;7.13;5.70;;;22.30;54.10;;;;;;8431615;28;20056;-54
2023/06/14 01:56:40;;;;;;;10.80;6.65;;;22.30;54.10;;;;;;8431453;28;20393;-54
2023/06/14 02:00:43;;;;;;;10.80;6.95;;;22.30;54.20;;;;;;8431220;28;20039;-54
2023/06/14 02:04:43;;;;;;;10.95;6.95;;;22.40;54.20;;;;;;8431171;28;20540;-54
2023/06/14 02:08:44;;;;;;;10.25;6.32;;;22.30;54.20;;;;;;8431091;28;20455;-54
2023/06/14 02:12:45;;;;;;;9.05;6.60;;;22.30;54.20;;;;;;8431171;28;20036;-53
2023/06/14 02:16:48;;;;;;;9.38;6.18;;;22.30;54.20;;;;;;8446386;28;20072;-53
2023/06/14 02:20:49;;;;;;;7.10;5.68;;;22.30;54.20;;;;;;8413090;28;20062;-54
2023/06/14 02:24:50;;;;;;;9.80;5.93;;;22.30;54.20;;;;;;8430405;28;20107;-54
2023/06/14 02:28:51;;;;;;;9.50;6.65;;;22.30;54.30;;;;;;8446027;28;20040;-54
2023/06/14 02:32:53;;;;;;;8.10;5.88;;;22.30;54.30;;;;;;8429997;28;20076;-54
2023/06/14 02:36:53;;;;;;;8.60;6.10;;;22.30;54.30;;;;;;8430218;28;20051;-54
2023/06/14 02:40:54;;;;;;;8.43;6.68;;;22.30;54.30;;;;;;8430388;28;20032;-54
2023/06/14 02:44:55;;;;;;;7.50;5.65;;;22.30;54.30;;;;;;8430113;28;20045;-54
2023/06/14 02:48:55;;;;;;;8.55;5.90;;;22.20;54.30;;;;;;8429892;28;20071;-54
2023/06/14 02:52:56;;;;;;;10.32;6.90;;;22.30;54.30;;;;;;8429268;28;20181;-54
2023/06/14 02:56:57;;;;;;;9.60;6.13;;;22.30;54.30;;;;;;8430093;28;20036;-54
2023/06/14 03:01:01;;;;;;;10.05;6.55;;;22.20;54.30;;;;;;8429432;28;20032;-54
2023/06/14 03:05:02;;;;;;;8.18;5.85;;;22.20;54.30;;;;;;8429213;28;20036;-54
2023/06/14 03:09:09;;;;;;;8.02;5.40;;;22.20;54.30;;;;;;8429070;28;20070;-54
2023/06/14 03:13:11;;;;;;;7.38;5.75;;;22.20;54.30;;;;;;8429131;28;20055;-54
2023/06/14 03:17:11;;;;;;;8.27;6.10;;;22.20;54.80;;;;;;8429067;28;20028;-54
2023/06/14 03:21:12;;;;;;;7.47;5.65;;;22.20;54.30;;;;;;8428579;28;20024;-54
2023/06/14 03:25:13;;;;;;;8.50;5.82;;;22.20;54.30;;;;;;8429123;28;20028;-54
2023/06/14 03:29:14;;;;;;;;;;;22.20;54.30;;;;;;8428865;28;20436;-54
2023/06/14 03:33:15;;;;;;;7.93;5.32;;;22.20;54.30;;;;;;8428565;28;19908;-54
2023/06/14 03:37:16;;;;;;;;;;;22.20;54.40;;;;;;8428801;28;20043;-54
2023/06/14 03:41:16;;;;;;;7.20;5.90;;;22.20;54.40;;;;;;8428075;28;20368;-54
2023/06/14 03:45:17;;;;;;;7.57;5.95;;;22.20;54.40;;;;;;8427737;28;20392;-54
2023/06/14 03:49:18;;;;;;;6.28;4.82;;;22.20;54.40;;;;;;8427811;28;20036;-54
2023/06/14 03:53:23;;;;;;;;;;;22.20;54.90;;;;;;8428571;28;20110;-54
2023/06/14 03:57:24;;;;;;;7.90;5.32;;;22.20;54.40;;;;;;8427531;28;20182;-54
2023/06/14 04:01:27;;;;;;;;;;;22.20;54.40;;;;;;8428006;28;20040;-54
2023/06/14 04:05:27;;;;;;;7.82;5.82;;;22.20;54.50;;;;;;8427174;28;19916;-54
2023/06/14 04:09:29;;;;;;;6.68;4.75;;;22.20;54.50;;;;;;8427814;28;20497;-54
2023/06/14 04:13:29;;;;;;;6.53;4.90;;;22.20;54.50;;;;;;8459961;28;20032;-54
2023/06/14 04:17:32;;;;;;;7.07;4.68;;;22.20;54.50;;;;;;8459550;28;20035;-54
2023/06/14 04:21:34;;;;;;;6.88;5.60;;;22.20;54.60;;;;;;8441138;28;20106;-55
2023/06/14 04:25:36;;;;;;;6.65;5.30;;;22.20;54.60;;;;;;8459359;28;20034;-54
2023/06/14 04:29:36;;;;;;;;;;;22.20;54.60;;;;;;8459694;28;20040;-54
2023/06/14 04:33:43;;;;;;;6.43;5.33;;;22.20;54.40;;;;;;8459142;28;19914;-54
2023/06/14 04:37:45;;;;;;;7.65;5.35;;;22.20;54.30;;;;;;8459288;28;20031;-54
2023/06/14 04:41:46;;;;;;;7.10;5.60;;;22.20;54.20;;;;;;8437714;28;20028;-54
2023/06/14 04:45:47;;;;;;;6.20;5.05;;;22.30;54.30;;;;;;8424726;28;20500;-54
2023/06/14 04:49:48;;;;;;;7.57;5.40;;;22.30;54.20;;;;;;8425062;28;20428;-54
2023/06/14 04:53:52;;;;;;;6.28;4.95;;;22.30;54.30;;;;;;8405581;28;20036;-54
2023/06/14 04:57:53;;;;;;;6.97;5.03;;;22.30;54.30;;;;;;8425444;28;20704;-54
2023/06/14 05:01:54;;;;;;;6.30;4.90;;;22.30;54.30;;;;;;8424677;28;20732;-54
2023/06/14 05:05:54;;;;;;;6.55;4.55;;;22.30;54.30;;;;;;8383889;28;1156299;-54
2023/06/14 05:09:55;;;;;;;7.30;4.80;;;22.20;54.30;;;;;;8426555;28;20040;-54
2023/06/14 05:13:58;;;;;;;6.30;4.85;;;22.30;54.30;;;;;;8425833;28;20036;-54
2023/06/14 05:17:58;;;;;;;7.28;5.07;;;22.30;54.30;;;;;;8426185;28;20044;-54
2023/06/14 05:21:59;;;;;;;6.45;4.82;;;22.20;54.30;;;;;;8425957;28;20059;-54
2023/06/14 05:26:02;;;;;;;6.47;4.93;;;22.30;54.30;;;;;;8425553;28;20094;-54
2023/06/14 05:30:03;;;;;;;6.05;4.55;;;22.20;54.30;;;;;;8426033;28;20021;-54
2023/06/14 05:34:04;;;;;;;7.00;5.20;;;22.20;54.30;;;;;;8425918;28;20430;-53
2023/06/14 05:38:05;;;;;;;7.00;4.93;;;22.20;54.30;;;;;;8425493;28;20032;-54
2023/06/14 05:42:06;;;;;;;5.68;4.60;;;22.20;54.40;;;;;;8425996;28;20791;-54
2023/06/14 05:46:07;;;;;;;6.00;4.80;;;22.20;54.40;;;;;;8425444;28;20040;-54
2023/06/14 05:50:08;;;;;;;5.65;5.00;;;22.20;54.30;;;;;;8425408;28;20035;-54
2023/06/14 05:54:08;;;;;;;;;;;22.20;54.40;;;;;;8426104;28;20108;-54
2023/06/14 05:58:10;;;;;;;5.07;4.13;;;22.20;54.40;;;;;;8425121;28;19908;-54
2023/06/14 06:02:11;;;;;;;5.38;3.80;;;22.20;54.50;;;;;;8425827;28;20093;-54
2023/06/14 06:06:12;;;;;;;6.47;5.00;;;22.20;54.40;;;;;;8428266;28;20489;-54
2023/06/14 06:10:13;;;;;;;8.63;4.75;;;22.20;54.50;;;;;;8413086;28;20115;-54
2023/06/14 06:14:13;;;;;;;6.30;4.63;;;22.20;54.50;;;;;;8431009;28;20039;-53
2023/06/14 06:18:14;;;;;;;7.13;4.75;;;22.20;54.50;;;;;;8412605;28;20500;-54
2023/06/14 06:22:15;;;;;;;5.32;4.28;;;22.10;54.50;;;;;;8430721;28;20103;-54
2023/06/14 06:26:15;;;;;;;5.03;4.13;;;22.20;54.50;;;;;;8430790;28;20028;-55
2023/06/14 06:30:16;;;;;;;4.85;3.95;;;22.20;54.50;;;;;;8430346;28;20103;-54
2023/06/14 06:34:16;;;;;;;4.65;3.90;;;22.10;54.40;;;;;;8430444;28;20036;-54
2023/06/14 06:38:18;;;;;;;6.20;4.70;;;22.20;54.50;;;;;;8430216;28;20024;-54
2023/06/14 06:42:19;;;;;;;5.60;3.97;;;22.10;54.50;;;;;;8430178;28;20120;-54
2023/06/14 06:46:20;;;;;;;;;;;22.10;54.50;;;;;;8430419;28;20032;-53
2023/06/14 06:50:23;;;;;;;4.63;3.97;;;22.10;54.40;;;;;;8429980;28;19951;-54
2023/06/14 06:54:23;;;;;;;4.47;3.88;;;22.20;54.50;;;;;;8429711;28;20038;-54
2023/06/14 06:58:24;;;;;;;6.68;4.15;;;22.10;54.50;;;;;;8429656;28;20036;-54
2023/06/14 07:02:24;;;;;;;4.05;3.65;;;22.10;54.50;;;;;;8429383;28;20036;-54
2023/06/14 07:06:27;;;;;;;5.13;4.03;;;22.10;54.50;;;;;;8428965;28;20056;-53
2023/06/14 07:10:27;;;;;;;5.45;4.20;;;22.10;54.50;;;;;;8429602;28;20397;-54
2023/06/14 07:14:29;;;;;;;5.88;4.55;;;22.10;54.50;;;;;;8429260;28;20050;-53
2023/06/14 07:18:30;;;;;;;5.45;4.10;;;22.10;54.50;;;;;;8427894;28;20036;-54
2023/06/14 07:22:31;;;;;;;6.13;4.40;;;22.10;54.50;;;;;;8429076;28;20040;-54
2023/06/14 07:26:31;;;;;;;5.25;4.10;;;22.10;54.50;;;;;;8428727;28;20043;-54
2023/06/14 07:30:32;;;;;;;5.43;3.83;;;22.10;54.50;;;;;;8428639;28;20054;-54
2023/06/14 07:34:33;;;;;;;5.80;4.38;;;22.10;54.50;;;;;;8428598;28;20036;-54
2023/06/14 07:38:33;;;;;;;5.72;3.70;;;22.10;54.50;;;;;;8428461;28;20032;-54
2023/06/14 07:42:35;;;;;;;5.32;3.70;;;22.10;54.50;;;;;;8428602;28;20067;-54
2023/06/14 07:46:37;;;;;;;5.22;3.90;;;22.10;54.60;;;;;;8428159;28;20040;-54
2023/06/14 07:50:37;;;;;;;4.10;3.30;;;22.10;54.60;;;;;;8428212;28;20040;-54
2023/06/14 07:54:38;;;;;;;4.55;3.65;;;22.10;54.60;;;;;;8428044;28;20071;-54
2023/06/14 07:58:39;;;;;;;4.85;3.92;;;22.10;54.60;;;;;;8427634;28;20086;-54
2023/06/14 08:02:39;;;;;;;5.35;4.32;;;22.10;54.60;;;;;;8443506;28;20067;-54
2023/06/14 08:06:43;;;;;;;4.57;3.53;;;22.10;54.60;;;;;;8427500;28;20105;-54
2023/06/14 08:10:44;;;;;;;4.53;3.90;;;22.10;54.60;;;;;;8427857;28;20039;-54
2023/06/14 08:14:45;;;;;;;5.45;4.15;;;22.10;54.60;;;;;;8427360;28;20028;-54
2023/06/14 08:18:45;;;;;;;4.50;3.42;;;22.10;54.60;;;;;;8427180;28;20509;-54
2023/06/14 08:22:48;;;;;;;4.80;3.70;;;22.10;54.60;;;;;;8427271;28;20135;-53
2023/06/14 08:26:48;;;;;;;4.65;3.83;;;22.10;54.60;;;;;;8426975;28;20043;-54
2023/06/14 08:30:49;;;;;;;4.05;3.42;;;22.10;54.60;;;;;;8426622;28;20482;-54
2023/06/14 08:34:50;;;;;;;6.68;3.85;;;22.10;54.60;;;;;;8427056;28;20085;-54
2023/06/14 08:38:51;;;;;;;4.32;3.60;;;22.10;54.60;;;;;;8426513;28;20062;-54
2023/06/14 08:42:54;;;;;;;4.55;3.30;;;22.10;54.60;;;;;;8427014;28;20032;-53
2023/06/14 08:46:58;;;;;;;5.22;3.92;;;22.10;54.60;;;;;;8426262;28;20485;-54
2023/06/14 08:51:04;;;;;;;4.63;3.90;;;22.10;54.60;;;;;;8426547;28;20028;-54
2023/06/14 08:55:05;;;;;;;5.05;3.85;;;22.10;54.60;;;;;;8408354;28;20071;-54
2023/06/14 08:59:06;;;;;;;;;;;22.10;54.60;;;;;;8426911;28;20032;-54
2023/06/14 09:03:12;;;;;;;4.55;3.40;;;22.10;54.60;;;;;;8426252;28;20458;-54
2023/06/14 09:07:13;;;;;;;5.55;4.03;;;22.10;54.60;;;;;;8426071;28;20060;-54
2023/06/14 09:11:15;;;;;;;5.22;3.75;;;22.10;54.60;;;;;;8426573;28;20606;-54
2023/06/14 09:15:16;;;;;;;4.43;3.40;;;22.10;54.60;;;;;;8425920;28;20035;-54
2023/06/14 09:19:24;;;;;;;5.22;3.80;;;22.10;54.60;;;;;;8408180;28;20036;-54
2023/06/14 09:23:25;;;;;;;5.45;3.78;;;22.10;54.60;;;;;;8425821;28;20060;-54
2023/06/14 09:27:26;;;;;;;3.80;3.35;;;22.10;54.60;;;;;;8425842;28;20032;-54
2023/06/14 09:31:31;;;;;;;3.97;3.20;;;22.10;54.60;;;;;;8426001;28;20066;-54
2023/06/14 09:35:32;;;;;;;3.75;3.33;;;22.10;54.60;;;;;;8425750;28;20086;-54
2023/06/14 09:39:33;;;;;;;3.80;3.05;;;22.10;54.60;;;;;;8426898;28;20527;-54
2023/06/14 09:43:34;;;;;;;4.47;3.47;;;22.10;54.60;;;;;;8432026;28;20423;-54
2023/06/14 09:47:34;;;;;;;3.83;3.28;;;22.10;54.50;;;;;;8447575;28;20056;-54
2023/06/14 09:51:42;;;;;;;3.72;3.20;;;22.10;54.60;;;;;;8431981;28;20028;-54
2023/06/14 09:55:43;;;;;;;3.63;3.20;;;22.10;54.60;;;;;;8431660;28;20032;-54
2023/06/14 09:59:47;;;;;;;3.40;3.10;;;22.10;54.60;;;;;;8431347;28;20034;-54
2023/06/14 10:03:50;;;;;;;4.50;3.30;;;22.10;54.50;;;;;;8431447;28;20039;-54
2023/06/14 10:08:00;;;;;;;5.75;3.53;;;22.10;54.60;;;;;;8410256;28;20076;-54
2023/06/14 10:12:02;;;;;;;4.00;2.95;;;22.10;54.60;;;;;;8397757;28;20032;-54
2023/06/14 10:16:17;;;;;;;3.63;3.30;;;22.10;54.50;;;;;;8397812;28;20040;-53
2023/06/14 10:20:37;;;;;;;3.67;3.10;;;22.10;54.50;;;;;;8397356;28;20070;-54
2023/06/14 10:24:42;;;;;;;4.18;3.38;;;22.10;54.50;;;;;;8397157;28;20024;-54
2023/06/14 10:29:06;;;;;;;3.88;3.50;;;22.10;54.50;;;;;;8397119;28;20114;-54
2023/06/14 10:33:07;;;;;;;4.72;3.35;;;22.10;54.50;;;;;;8396832;28;20036;-54
2023/06/14 10:37:12;;;;;;;;;;;22.10;54.50;;;;;;8397545;28;20033;-54
2023/06/14 10:41:13;;;;;;;4.03;2.97;;;22.10;54.50;;;;;;8397090;28;20350;-54
2023/06/14 10:45:13;;;;;;;3.58;3.00;;;22.10;54.60;;;;;;8396241;28;20501;-54
2023/06/14 10:49:18;;;;;;;4.03;2.95;;;22.00;54.50;;;;;;8396387;28;20033;-54
2023/06/14 10:53:23;;;;;;;4.72;3.25;;;22.10;54.60;;;;;;8396071;28;20490;-54
2023/06/14 10:57:24;;;;;;;3.90;3.33;;;22.10;54.60;;;;;;8396050;28;20108;-54
2023/06/14 11:01:48;;;;;;;3.40;2.78;;;22.10;54.50;;;;;;8396035;28;20052;-54
2023/06/14 11:05:57;;;;;;;3.78;3.03;;;22.00;54.50;;;;;;8389622;28;20048;-54
2023/06/14 11:10:20;;;;;;;3.75;3.10;;;22.10;54.50;;;;;;8429810;28;20035;-54
2023/06/14 11:14:21;;;;;;;3.72;3.08;;;22.10;54.50;;;;;;8429269;28;20032;-53
2023/06/14 11:18:27;;;;;;;3.70;3.03;;;22.10;54.50;;;;;;8410951;28;20040;-54
2023/06/14 11:22:27;;;;;;;4.03;2.88;;;22.10;54.50;;;;;;8429014;28;20719;-54
2023/06/14 11:26:29;;;;;;;3.95;3.10;;;22.10;54.50;;;;;;8428884;28;20760;-53
2023/06/14 11:30:30;;;;;;;2.90;2.50;;;22.10;54.60;;;;;;8428653;28;20024;-54
2023/06/14 11:34:31;;;;;;;2.97;2.67;;;22.10;54.50;;;;;;8428645;28;20085;-53
2023/06/14 11:38:36;;;;;;;3.45;3.00;;;22.10;54.50;;;;;;8428826;28;20688;-54
2023/06/14 11:42:38;;;;;;;4.03;3.20;;;22.10;54.50;;;;;;8428743;28;20106;-54
2023/06/14 11:46:38;;;;;;;3.08;2.75;;;22.10;54.60;;;;;;8428465;28;20032;-54
2023/06/14 11:50:39;;;;;;;3.78;2.80;;;22.10;54.50;;;;;;8428425;28;20089;-54
2023/06/14 11:54:41;;;;;;;3.63;2.97;;;22.10;54.50;;;;;;8428323;28;20036;-54
2023/06/14 11:58:43;;;;;;;4.05;3.15;;;22.10;54.50;;;;;;8428098;28;20081;-54
2023/06/14 12:02:55;;;;;;;3.40;2.97;;;22.10;54.50;;;;;;8427352;28;20070;-54
2023/06/14 12:06:57;;;;;;;3.38;2.58;;;22.10;54.50;;;;;;8427771;28;20047;-54
2023/06/14 12:10:57;;;;;;;3.45;2.83;;;22.10;54.50;;;;;;8428052;28;20040;-54
2023/06/14 12:14:58;;;;;;;3.97;2.97;;;22.10;54.50;;;;;;8409275;28;20038;-54
2023/06/14 12:19:16;;;;;;;4.40;2.75;;;22.10;54.50;;;;;;8427318;28;20036;-54
2023/06/14 12:23:17;;;;;;;3.55;2.92;;;22.10;54.50;;;;;;8427128;28;20456;-54
2023/06/14 12:27:23;;;;;;;3.92;3.10;;;22.10;54.50;;;;;;8426944;28;20105;-54
2023/06/14 12:31:24;;;;;;;3.63;3.00;;;22.10;54.50;;;;;;8426765;28;20032;-54
2023/06/14 12:35:25;;;;;;;2.97;2.53;;;22.10;54.50;;;;;;8426880;28;20067;-54
2023/06/14 12:39:25;;;;;;;3.28;2.65;;;22.10;54.50;;;;;;8426815;28;20145;-54
2023/06/14 12:43:26;;;;;;;3.00;2.70;;;22.10;54.50;;;;;;8426657;28;20040;-54
2023/06/14 12:47:27;;;;;;;3.22;2.78;;;22.10;54.50;;;;;;8426624;28;20048;-54
2023/06/14 12:51:28;;;;;;;3.33;2.80;;;22.10;54.50;;;;;;8426404;28;20070;-54
2023/06/14 12:55:28;;;;;;;2.55;2.35;;;22.10;54.40;;;;;;8426253;28;20038;-54
2023/06/14 12:59:32;;;;;;;3.17;2.80;;;22.10;54.40;;;;;;8408387;28;20040;-54
2023/06/14 13:03:34;;;;;;;3.00;2.60;;;22.10;54.50;;;;;;8426237;28;20032;-54
2023/06/14 13:07:34;;;;;;;2.85;2.60;;;22.10;54.40;;;;;;8426211;28;20083;-54
2023/06/14 13:11:36;;;;;;;2.55;2.30;;;22.10;54.40;;;;;;8427055;28;20047;-54
2023/06/14 13:15:38;;;;;;;2.50;2.10;;;22.10;54.40;;;;;;8428608;28;20738;-54
2023/06/14 13:19:38;;;;;;;;;;;22.10;54.50;;;;;;8415310;28;20092;-54
2023/06/14 13:23:39;;;;;;;3.23;2.53;;;22.20;54.50;;;;;;8432675;28;20003;-54
2023/06/14 13:27:40;;;;;;;3.60;2.90;;;22.10;54.40;;;;;;8432681;28;20050;-54
2023/06/14 13:31:41;;;;;;;3.35;2.75;;;22.20;54.50;;;;;;8432488;28;20020;-54
2023/06/14 13:35:41;;;;;;;3.13;2.67;;;22.10;54.50;;;;;;8432460;28;20040;-54
2023/06/14 13:39:42;;;;;;;3.92;2.70;;;22.10;54.40;;;;;;8432565;28;20051;-54
2023/06/14 13:43:43;;;;;;;3.10;2.33;;;22.20;54.50;;;;;;8432188;28;20028;-54
2023/06/14 13:47:44;;;;;;;2.47;2.28;;;22.20;54.50;;;;;;8413843;28;20036;-54
2023/06/14 13:51:45;;;;;;;3.33;2.55;;;22.20;54.50;;;;;;8432008;28;20107;-54
2023/06/14 13:55:45;;;;;;;3.40;2.63;;;22.10;54.40;;;;;;8431771;28;20143;-54
2023/06/14 13:59:46;;;;;;;3.00;2.38;;;22.10;54.40;;;;;;8431687;28;20028;-54
2023/06/14 14:03:49;;;;;;;3.35;2.30;;;22.10;54.50;;;;;;8431557;28;20075;-54
2023/06/14 14:07:50;;;;;;;3.17;2.88;;;22.20;54.50;;;;;;8431176;28;20387;-54
2023/06/14 14:11:50;;;;;;;2.40;2.20;;;22.10;54.50;;;;;;8431485;28;20032;-54
2023/06/14 14:15:52;;;;;;;2.50;2.30;;;22.10;54.40;;;;;;8431286;28;20028;-54
2023/06/14 14:19:52;;;;;;;2.55;2.33;;;22.10;54.40;;;;;;8431010;28;20101;-54
2023/06/14 14:23:53;;;;;;;2.42;2.17;;;22.20;54.40;;;;;;8430721;28;20110;-54
2023/06/14 14:27:53;;;;;;;2.90;2.53;;;22.20;54.40;;;;;;8430421;28;20024;-54
2023/06/14 14:31:56;;;;;;;3.03;2.50;;;22.20;54.40;;;;;;8430622;28;20028;-54
2023/06/14 14:35:56;;;;;;;3.50;2.70;;;22.20;54.40;;;;;;8430341;28;20032;-54
2023/06/14 14:39:57;;;;;;;3.13;2.83;;;22.20;54.40;;;;;;8430963;28;20028;-54
2023/06/14 14:43:59;;;;;;;2.58;2.38;;;22.20;54.40;;;;;;8429986;28;20381;-54
2023/06/14 14:48:00;;;;;;;2.72;2.30;;;22.20;54.40;;;;;;8430137;28;20024;-54
2023/06/14 14:52:02;;;;;;;3.03;2.17;;;22.20;54.40;;;;;;8430210;28;20088;-54
2023/06/14 14:56:03;;;;;;;3.25;2.55;;;22.20;54.40;;;;;;8430022;28;20028;-54
2023/06/14 15:00:05;;;;;;;3.90;2.28;;;22.20;54.40;;;;;;8429641;28;20024;-54
2023/06/14 15:04:06;;;;;;;2.70;2.30;;;22.20;54.40;;;;;;8430402;28;20036;-54
2023/06/14 15:08:13;;;;;;;1.80;1.67;;;22.20;54.40;;;;;;8429150;28;20051;-54
2023/06/14 15:12:13;;;;;;;2.47;2.13;;;22.20;54.30;;;;;;8429844;28;20024;-54
2023/06/14 15:16:15;;;;;;;3.17;2.33;;;22.20;54.30;;;;;;8429288;28;20051;-54
2023/06/14 15:20:15;;;;;;;;;;;22.20;54.40;;;;;;8429167;28;20478;-54
2023/06/14 15:24:16;;;;;;;3.17;2.50;;;22.20;54.80;;;;;;8429016;28;20416;-54
2023/06/14 15:28:16;;;;;;;2.88;2.33;;;22.20;54.30;;;;;;8428655;28;20024;-54
2023/06/14 15:32:17;;;;;;;2.75;2.40;;;22.20;54.30;;;;;;8428747;28;20423;-54
2023/06/14 15:36:18;;;;;;;2.95;2.30;;;22.20;54.30;;;;;;8428600;28;20036;-54
2023/06/14 15:40:18;;;;;;;3.45;2.60;;;22.20;54.30;;;;;;8427745;28;20036;-54
2023/06/14 15:44:19;;;;;;;3.17;2.13;;;22.20;54.30;;;;;;8428194;28;20093;-54
2023/06/14 15:48:20;;;;;;;3.58;2.33;;;22.20;54.30;;;;;;8428288;28;20050;-54
2023/06/14 15:52:21;;;;;;;2.10;1.88;;;22.20;54.30;;;;;;8427947;28;20032;-55
2023/06/14 15:56:21;;;;;;;2.60;2.40;;;22.20;54.30;;;;;;8427923;28;20390;-54
2023/06/14 16:00:22;;;;;;;2.80;2.42;;;22.20;54.30;;;;;;8427693;28;20043;-54
2023/06/14 16:04:23;;;;;;;3.15;2.50;;;22.20;54.40;;;;;;8427548;28;20035;-54
2023/06/14 16:08:23;;;;;;;2.15;1.95;;;22.20;54.40;;;;;;8427493;28;20118;-53
2023/06/14 16:12:24;;;;;;;2.38;2.10;;;22.20;54.40;;;;;;8427779;28;20034;-53
2023/06/14 16:16:25;;;;;;;2.35;2.15;;;22.10;54.40;;;;;;8427099;28;20093;-54
2023/06/14 16:20:26;;;;;;;2.38;2.17;;;22.20;54.40;;;;;;8427470;28;20036;-54
2023/06/14 16:24:27;;;;;;;2.63;2.20;;;22.20;54.40;;;;;;8426903;28;20529;-54
2023/06/14 16:28:29;;;;;;;2.92;2.05;;;22.10;54.40;;;;;;8426800;28;20432;-54
2023/06/14 16:32:31;;;;;;;2.70;2.08;;;22.10;54.40;;;;;;8427110;28;20023;-54
2023/06/14 16:36:32;;;;;;;2.42;2.15;;;22.10;54.40;;;;;;8426753;28;20032;-54
2023/06/14 16:40:32;;;;;;;2.35;2.15;;;22.20;54.40;;;;;;8427118;28;20104;-53
2023/06/14 16:44:33;;;;;;;2.40;2.20;;;22.20;54.40;;;;;;8426549;28;20059;-54
2023/06/14 16:48:34;;;;;;;2.35;2.10;;;22.20;54.40;;;;;;8426631;28;20028;-54
2023/06/14 16:52:35;;;;;;;;;;;22.20;54.40;;;;;;8442703;28;20016;-54
2023/06/14 16:56:36;;;;;;;2.30;2.07;;;22.20;54.30;;;;;;8426520;28;19904;-54
2023/06/14 17:00:36;;;;;;;2.80;2.33;;;22.20;54.40;;;;;;8426714;28;20081;-54
2023/06/14 17:04:37;;;;;;;3.05;2.30;;;22.20;54.30;;;;;;8426471;28;20107;-54
2023/06/14 17:08:38;;;;;;;2.78;2.20;;;22.20;54.30;;;;;;8426181;28;20052;-54
2023/06/14 17:12:38;;;;;;;3.28;2.00;;;22.20;54.30;;;;;;8426385;28;20076;-53
2023/06/14 17:16:39;;;;;;;3.90;2.17;;;22.20;54.30;;;;;;8426082;28;20607;-54
2023/06/14 17:20:40;;;;;;;2.42;1.90;;;22.20;54.30;;;;;;8426090;28;20031;-52
2023/06/14 17:24:41;;;;;;;3.60;2.58;;;22.20;54.30;;;;;;8425905;28;20454;-54
2023/06/14 17:28:41;;;;;;;2.30;2.10;;;22.20;54.30;;;;;;8425854;28;20081;-54
2023/06/14 17:32:42;;;;;;;2.67;2.33;;;22.20;54.30;;;;;;8425797;28;20024;-54
2023/06/14 17:36:43;;;;;;;2.45;2.15;;;22.20;54.30;;;;;;8425917;28;20621;-52
2023/06/14 17:40:44;;;;;;;2.47;1.95;;;22.20;54.30;;;;;;8426077;28;20134;-54
2023/06/14 17:44:45;;;;;;;2.25;1.98;;;22.20;54.30;;;;;;8426407;28;20362;-54
2023/06/14 17:48:46;;;;;;;2.22;2.03;;;22.20;54.30;;;;;;8425660;28;20016;-53
2023/06/14 17:52:46;;;;;;;2.63;2.25;;;22.20;54.30;;;;;;8425477;28;20099;-54
2023/06/14 17:56:47;;;;;;;2.35;2.13;;;22.20;54.30;;;;;;8425364;28;20500;-55
2023/06/14 18:00:49;;;;;;;;;;;22.20;54.30;;;;;;8408890;28;20040;-54
2023/06/14 18:04:50;;;;;;;3.30;2.40;;;22.20;54.30;;;;;;8431327;28;19908;-54
2023/06/14 18:08:51;;;;;;;2.55;1.92;;;22.20;54.30;;;;;;8431266;28;20056;-53
2023/06/14 18:12:51;;;;;;;2.30;2.10;;;22.20;54.30;;;;;;8431516;28;20036;-54
2023/06/14 18:16:52;;;;;;;2.85;1.98;;;22.20;54.30;;;;;;8430851;28;20504;-54
2023/06/14 18:20:53;;;;;;;2.35;2.15;;;22.20;54.30;;;;;;8431374;28;20435;-54
2023/06/14 18:24:53;;;;;;;2.78;2.50;;;22.10;54.30;;;;;;8430403;28;20059;-54
2023/06/14 18:28:54;;;;;;;2.55;2.17;;;22.20;54.40;;;;;;8430537;28;20367;-54
2023/06/14 18:32:55;;;;;;;2.00;1.80;;;22.20;54.40;;;;;;8430756;28;20024;-54
2023/06/14 18:36:57;;;;;;;2.30;2.00;;;22.20;54.40;;;;;;8430491;28;20039;-54
2023/06/14 18:40:57;;;;;;;2.28;1.98;;;22.10;54.40;;;;;;8430870;28;20039;-54
2023/06/14 18:44:58;;;;;;;2.08;1.88;;;22.20;54.40;;;;;;8430088;28;20028;-54
2023/06/14 18:49:00;;;;;;;2.35;2.05;;;22.10;54.30;;;;;;8430099;28;20095;-54
2023/06/14 18:53:01;;;;;;;1.95;1.85;;;22.20;54.40;;;;;;8430205;28;20031;-54
2023/06/14 18:57:02;;;;;;;3.05;2.40;;;22.10;54.80;;;;;;8429935;28;20038;-54
2023/06/14 19:01:02;;;;;;;;;;;22.20;54.40;;;;;;8430109;28;20381;-54
2023/06/14 19:05:04;;;;;;;2.53;2.33;;;22.20;54.40;;;;;;8429783;28;19999;-54
2023/06/14 19:09:05;;;;;;;2.22;1.95;;;22.20;54.40;;;;;;8429237;28;20044;-54
2023/06/14 19:13:06;;;;;;;2.42;2.17;;;22.20;54.40;;;;;;8428345;28;20067;-53
2023/06/14 19:17:07;;;;;;;1.70;1.60;;;22.20;54.40;;;;;;8429460;28;20024;-54
2023/06/14 19:21:08;;;;;;;1.77;1.67;;;22.20;54.40;;;;;;8429072;28;20034;-53
2023/06/14 19:25:09;;;;;;;2.50;1.92;;;22.20;54.40;;;;;;8428779;28;20039;-53
2023/06/14 19:29:09;;;;;;;2.13;1.70;;;22.20;54.40;;;;;;8428882;28;20031;-54
2023/06/14 19:33:12;;;;;;;2.03;1.83;;;22.20;54.40;;;;;;8428820;28;20024;-54
2023/06/14 19:37:13;;;;;;;2.00;1.80;;;22.20;54.40;;;;;;8428583;28;20028;-54
2023/06/14 19:41:15;;;;;;;;;;;22.20;54.40;;;;;;8429125;28;20028;-54
2023/06/14 19:45:16;;;;;;;2.22;2.00;;;22.20;54.40;;;;;;8428133;28;19908;-54
2023/06/14 19:49:18;;;;;;;1.67;1.58;;;22.20;54.40;;;;;;8428200;28;20028;-54
2023/06/14 19:53:19;;;;;;;1.92;1.52;;;22.10;54.40;;;;;;8427700;28;20020;-54
2023/06/14 19:57:20;;;;;;;2.70;1.90;;;22.10;54.40;;;;;;8427925;28;20539;-54
2023/06/14 20:01:21;;;;;;;1.85;1.70;;;22.10;54.40;;;;;;8427846;28;20375;-53
2023/06/14 20:05:21;;;;;;;1.75;1.65;;;22.20;54.50;;;;;;8427489;28;20089;-55
2023/06/14 20:09:23;;;;;;;1.80;1.70;;;22.10;54.50;;;;;;8427657;28;20048;-56
2023/06/14 20:13:24;;;;;;;1.88;1.65;;;22.10;54.40;;;;;;8427643;28;20028;-54
2023/06/14 20:17:25;;;;;;;2.25;1.70;;;22.10;54.40;;;;;;8427500;28;20038;-54
2023/06/14 20:21:25;;;;;;;1.90;1.70;;;22.10;54.40;;;;;;8427198;28;20119;-54
2023/06/14 20:25:26;;;;;;;1.83;1.70;;;22.20;54.50;;;;;;8426630;28;20034;-54
2023/06/14 20:29:27;;;;;;;1.63;1.50;;;22.10;54.40;;;;;;8426922;28;20077;-54
2023/06/14 20:33:29;;;;;;;2.03;1.80;;;22.10;54.40;;;;;;8426998;28;20032;-54
2023/06/14 20:37:29;;;;;;;1.83;1.65;;;22.10;54.40;;;;;;8426670;28;20546;-54
2023/06/14 20:41:30;;;;;;;1.60;1.50;;;22.10;54.40;;;;;;8427235;28;20436;-54
2023/06/14 20:45:31;;;;;;;2.08;1.80;;;22.10;54.40;;;;;;8426472;28;20031;-54
2023/06/14 20:49:32;;;;;;;;;;;22.20;54.50;;;;;;8427280;28;20032;-54
2023/06/14 20:53:33;;;;;;;2.20;1.50;;;22.10;54.40;;;;;;8408244;28;19946;-54
2023/06/14 20:57:34;;;;;;;2.08;1.75;;;22.10;54.40;;;;;;8426269;28;20030;-54
2023/06/14 21:01:35;;;;;;;2.20;1.70;;;22.20;54.50;;;;;;8426355;28;20051;-54
2023/06/14 21:05:36;;;;;;;1.90;1.70;;;22.10;54.40;;;;;;8426355;28;20047;-54